No Name, Colorado
Current Conditions -  °F | °C
As of 2:17 AM on Monday 20 Oct 2014 (Local Time) from K5SM Reporting Station
Clear Clear  
Wind Chill: 41°   Ceiling: Unl
Heat Index: 41°   Visibility: 10mi
Dew Point: 32°   Wind: 0mph
Humidity: 70%   Direction: NA
Pressure: 30.43"   Gusts: NA
Location:  39.6119°N, 107.29°W
Report Text: K5SM 200817Z AUTO 00000KT 10SM CLR 05/00 A3043 RMK AO2
Loading
Personal Weather Stations






























Interactive Weather Map
Tropical Storm Tracking
New forecast layout! Learn more

10-Day Weather Forecast

Advertisements
Track Severe Weather on mobile